KCHD/CHD METAR and TAF weather

Enter ICAO airport designator
Station Type Date Time Source
KCHD METAR 2019/04/25 01:47 UTC NOAA

KCHD 250147Z 22007KT 10SM CLR 31/M01 A2982


Station Type Date Time Source
KCHD Decoded METAR 2019/04/25 01:47 UTC NOAA

Chandler, Chandler Municipal Airport, AZ, United States (KCHD) 33-16-09N 111-48-40W
Apr 24, 2019 - 09:47 PM EDT / 2019.04.25 0147 UTC
Wind: from the SW (220 degrees) at 8 MPH (7 KT):0
Visibility: 10 mile(s):0
Sky conditions: clear
Temperature: 87 F (31 C)
Dew Point: 30 F (-1 C)
Relative Humidity: 12%
Pressure (altimeter): 29.82 in. Hg (1009 hPa)
ob: KCHD 250147Z 22007KT 10SM CLR 31/M01 A2982
cycle: 2

Station Type Date Time Source
KCHD TAF UTC NOAA

Error!

Example: see airport list